createdAt,value
2022-11-30T00:00:48.363Z,101856.88
2022-11-30T00:02:54.060Z,101861.09
2022-11-30T00:04:56.749Z,101852.81
2022-11-30T00:06:59.483Z,101855.63
2022-11-30T00:09:02.122Z,101844.94
2022-11-30T00:11:11.751Z,101842.41
2022-11-30T00:13:14.344Z,101849.69
2022-11-30T00:15:17.760Z,101851.22
2022-11-30T00:17:20.720Z,101841.66
2022-11-30T00:19:23.310Z,101848.53
2022-11-30T00:21:25.940Z,101843.06
2022-11-30T00:23:39.926Z,101842.50
2022-11-30T00:25:42.512Z,101845.59
2022-11-30T00:27:45.106Z,101840.66
2022-11-30T00:29:47.697Z,101825.09
2022-11-30T00:31:50.479Z,101843.75
2022-11-30T00:33:53.089Z,101840.06
2022-11-30T00:35:57.319Z,101845.97
2022-11-30T00:38:02.785Z,101844.16
2022-11-30T00:40:06.663Z,101852.44
2022-11-30T00:42:10.197Z,101850.63
2022-11-30T00:44:12.880Z,101867.34
2022-11-30T00:46:15.599Z,101853.88
2022-11-30T00:48:18.175Z,101857.00
2022-11-30T00:50:20.804Z,101860.09
2022-11-30T00:52:23.553Z,101867.13
2022-11-30T00:54:26.099Z,101862.22
2022-11-30T00:56:28.726Z,101856.03
2022-11-30T00:58:31.255Z,101865.44
2022-11-30T01:00:34.021Z,101870.34
2022-11-30T01:02:36.648Z,101864.03
2022-11-30T01:04:39.302Z,101866.41
2022-11-30T01:06:42.089Z,101867.97
2022-11-30T01:08:44.703Z,101852.78
2022-11-30T01:10:51.109Z,101860.50
2022-11-30T01:12:54.528Z,101870.22
2022-11-30T01:14:57.040Z,101866.13
2022-11-30T01:16:59.624Z,101867.69
2022-11-30T01:19:04.397Z,101873.16
2022-11-30T01:21:13.555Z,101864.03
2022-11-30T01:23:16.202Z,101859.69
2022-11-30T01:25:18.764Z,101860.09
2022-11-30T01:27:21.355Z,101859.97
2022-11-30T01:29:24.018Z,101851.94
2022-11-30T01:31:26.652Z,101864.03
2022-11-30T01:33:29.581Z,101864.47
2022-11-30T01:35:32.241Z,101861.19
2022-11-30T01:37:35.302Z,101858.28
2022-11-30T01:39:37.965Z,101862.91
2022-11-30T01:41:40.854Z,101862.63
2022-11-30T01:43:49.910Z,101857.56
2022-11-30T01:45:52.596Z,101862.47
2022-11-30T01:47:57.584Z,101861.63
2022-11-30T01:50:09.770Z,101869.38
2022-11-30T01:52:24.480Z,101854.63
2022-11-30T01:54:33.020Z,101857.16
2022-11-30T01:56:37.394Z,101855.31
2022-11-30T01:58:40.037Z,101854.31
2022-11-30T02:00:47.219Z,101861.91
2022-11-30T02:03:11.501Z,101866.56
2022-11-30T02:05:15.463Z,101859.97
2022-11-30T02:07:18.223Z,101860.94
2022-11-30T02:09:22.299Z,101860.94
2022-11-30T02:11:28.868Z,101870.50
2022-11-30T02:13:34.399Z,101870.38
2022-11-30T02:15:53.167Z,101864.06
2022-11-30T02:18:10.479Z,101867.69
2022-11-30T02:20:21.997Z,101875.44
2022-11-30T02:22:46.427Z,101869.94
2022-11-30T02:24:49.359Z,101864.06
2022-11-30T02:27:15.401Z,101875.44
2022-11-30T02:29:18.195Z,101869.69
2022-11-30T02:31:26.992Z,101860.00
2022-11-30T02:33:32.513Z,101864.06
2022-11-30T02:35:39.102Z,101865.75
2022-11-30T02:37:43.469Z,101862.53
2022-11-30T02:39:46.132Z,101855.91
2022-11-30T02:41:48.753Z,101863.34
2022-11-30T02:43:52.199Z,101852.81
2022-11-30T02:46:09.941Z,101866.16
2022-11-30T02:48:18.769Z,101856.91
2022-11-30T02:51:10.941Z,101861.22
2022-11-30T02:53:13.768Z,101859.28
2022-11-30T02:55:18.945Z,101855.47
2022-11-30T02:57:21.583Z,101850.28
2022-11-30T02:59:24.300Z,101860.69
2022-11-30T03:01:27.065Z,101861.53
2022-11-30T03:03:29.765Z,101853.94
2022-11-30T03:05:32.909Z,101851.56
2022-11-30T03:07:35.778Z,101852.69
2022-11-30T03:09:38.431Z,101856.59
2022-11-30T03:11:41.007Z,101852.41
2022-11-30T03:13:43.619Z,101850.88
2022-11-30T03:15:46.331Z,101849.44
2022-11-30T03:17:48.946Z,101843.56
2022-11-30T03:19:51.581Z,101844.28
2022-11-30T03:21:54.135Z,101841.03
2022-11-30T03:23:56.813Z,101839.78
2022-11-30T03:25:59.973Z,101838.94
2022-11-30T03:28:02.682Z,101840.63
2022-11-30T03:30:06.062Z,101828.72
2022-11-30T03:32:08.890Z,101825.34
2022-11-30T03:34:11.457Z,101821.41
2022-11-30T03:36:14.441Z,101830.81
2022-11-30T03:38:17.031Z,101824.38
2022-11-30T03:40:20.119Z,101825.63
2022-11-30T03:42:22.801Z,101821.28
2022-11-30T03:44:25.493Z,101821.56
2022-11-30T03:46:28.133Z,101814.97
2022-11-30T03:48:31.810Z,101809.06
2022-11-30T03:50:34.451Z,101815.38
2022-11-30T03:52:37.052Z,101814.13
2022-11-30T03:54:39.678Z,101813.84
2022-11-30T03:56:42.221Z,101819.16
2022-11-30T03:58:44.875Z,101817.22
2022-11-30T04:00:47.768Z,101815.81
2022-11-30T04:02:50.415Z,101812.00
2022-11-30T04:04:53.328Z,101807.25
2022-11-30T04:06:56.026Z,101818.75
2022-11-30T04:08:58.605Z,101826.75
2022-11-30T04:11:02.401Z,101828.00
2022-11-30T04:13:05.017Z,101824.50
2022-11-30T04:15:08.357Z,101827.03
2022-11-30T04:17:11.016Z,101823.94
2022-11-30T04:19:13.540Z,101829.25
2022-11-30T04:21:16.091Z,101830.78
2022-11-30T04:23:18.767Z,101838.94
2022-11-30T04:25:21.395Z,101834.59
2022-11-30T04:27:23.936Z,101843.56
2022-11-30T04:29:26.508Z,101850.72
2022-11-30T04:31:29.103Z,101839.91
2022-11-30T04:33:32.026Z,101853.50
2022-11-30T04:35:38.557Z,101854.59
2022-11-30T04:37:41.202Z,101851.34
2022-11-30T04:39:43.816Z,101852.97
2022-11-30T04:41:46.452Z,101856.47
2022-11-30T04:43:49.150Z,101865.47
2022-11-30T04:45:51.941Z,101865.34
2022-11-30T04:47:54.576Z,101871.94
2022-11-30T04:49:57.164Z,101865.59
2022-11-30T04:51:59.690Z,101864.63
2022-11-30T04:54:02.411Z,101856.75
2022-11-30T04:56:09.955Z,101857.28
2022-11-30T04:58:12.653Z,101861.91
2022-11-30T05:00:17.923Z,101865.03
2022-11-30T05:02:20.533Z,101858.00
2022-11-30T05:04:23.180Z,101854.78
2022-11-30T05:06:26.750Z,101858.41
2022-11-30T05:08:29.424Z,101846.06
2022-11-30T05:10:34.014Z,101852.38
2022-11-30T05:12:36.831Z,101857.84
2022-11-30T05:14:39.344Z,101856.84
2022-11-30T05:16:41.956Z,101851.97
2022-11-30T05:18:44.606Z,101862.75
2022-11-30T05:20:51.584Z,101860.22
2022-11-30T05:22:54.099Z,101857.25
2022-11-30T05:24:56.637Z,101860.16
2022-11-30T05:27:00.224Z,101864.06
2022-11-30T05:29:06.640Z,101868.84
2022-11-30T05:31:09.418Z,101854.69
2022-11-30T05:33:12.500Z,101866.31
2022-11-30T05:35:15.138Z,101864.03
2022-11-30T05:37:17.763Z,101868.97
2022-11-30T05:39:20.362Z,101868.28
2022-11-30T05:41:23.110Z,101869.72
2022-11-30T05:43:25.723Z,101861.78
2022-11-30T05:45:28.975Z,101852.38
2022-11-30T05:47:31.555Z,101858.53
2022-11-30T05:49:34.226Z,101861.38
2022-11-30T05:51:36.790Z,101856.88
2022-11-30T05:53:39.917Z,101855.28
2022-11-30T05:55:42.533Z,101843.69
2022-11-30T05:57:45.075Z,101842.31
2022-11-30T05:59:47.678Z,101851.75
2022-11-30T06:01:53.112Z,101844.91
2022-11-30T06:03:56.434Z,101849.00
2022-11-30T06:05:59.071Z,101843.81
2022-11-30T06:08:01.785Z,101845.94
2022-11-30T06:10:05.259Z,101848.03
2022-11-30T06:12:08.250Z,101856.16
2022-11-30T06:14:10.852Z,101853.19
2022-11-30T06:16:13.532Z,101857.13
2022-11-30T06:18:16.138Z,101859.41
2022-11-30T06:20:18.764Z,101866.44
2022-11-30T06:22:21.692Z,101861.94
2022-11-30T06:24:24.291Z,101868.69
2022-11-30T06:26:26.861Z,101867.38
2022-11-30T06:28:29.678Z,101872.69
2022-11-30T06:30:32.270Z,101857.53
2022-11-30T06:32:34.826Z,101854.06
2022-11-30T06:34:37.756Z,101843.28
2022-11-30T06:36:40.284Z,101861.25
2022-11-30T06:38:42.861Z,101862.66
2022-11-30T06:40:45.600Z,101856.50
2022-11-30T06:42:48.495Z,101851.88
2022-11-30T06:44:51.244Z,101851.72
2022-11-30T06:46:54.099Z,101862.78
2022-11-30T06:48:56.904Z,101868.69
2022-11-30T06:51:00.740Z,101866.03
2022-11-30T06:53:04.159Z,101863.50
2022-11-30T06:55:08.462Z,101859.28
2022-11-30T06:57:11.911Z,101868.28
2022-11-30T06:59:14.964Z,101862.75
2022-11-30T07:01:17.763Z,101866.09
2022-11-30T07:03:20.432Z,101861.88
2022-11-30T07:05:23.407Z,101871.97
2022-11-30T07:07:31.247Z,101863.16
2022-11-30T07:09:35.850Z,101857.00
2022-11-30T07:11:38.545Z,101863.31
2022-11-30T07:13:41.613Z,101860.50
2022-11-30T07:15:46.612Z,101852.53
2022-11-30T07:17:49.394Z,101857.44
2022-11-30T07:19:52.213Z,101856.31
2022-11-30T07:21:54.771Z,101860.09
2022-11-30T07:24:16.013Z,101866.00
2022-11-30T07:26:18.930Z,101868.50
2022-11-30T07:28:21.925Z,101865.00
2022-11-30T07:30:24.775Z,101864.56
2022-11-30T07:32:27.692Z,101859.78
2022-11-30T07:34:30.349Z,101868.75
2022-11-30T07:36:35.063Z,101862.41
2022-11-30T07:38:38.164Z,101869.59
2022-11-30T07:40:40.921Z,101864.25
2022-11-30T07:42:43.645Z,101870.59
2022-11-30T07:44:46.641Z,101865.84
2022-11-30T07:46:49.474Z,101859.56
2022-11-30T07:48:52.672Z,101866.72
2022-11-30T07:51:01.513Z,101859.28
2022-11-30T07:53:04.188Z,101858.44
2022-11-30T07:55:07.591Z,101856.91
2022-11-30T07:57:10.154Z,101861.41
2022-11-30T07:59:12.850Z,101856.19
2022-11-30T08:01:22.047Z,101855.06
2022-11-30T08:03:25.248Z,101853.22
2022-11-30T08:05:28.492Z,101850.03
2022-11-30T08:07:31.667Z,101853.09
2022-11-30T08:09:35.436Z,101845.94
2022-11-30T08:11:39.120Z,101850.88
2022-11-30T08:13:42.741Z,101852.00
2022-11-30T08:15:45.757Z,101841.44
2022-11-30T08:17:50.367Z,101828.53
2022-11-30T08:19:53.457Z,101837.66
2022-11-30T08:21:56.481Z,101842.84
2022-11-30T08:23:59.522Z,101832.72
2022-11-30T08:26:28.044Z,101851.66
2022-11-30T08:28:31.201Z,101845.78
2022-11-30T08:30:34.288Z,101850.16
2022-11-30T08:32:37.295Z,101862.66
2022-11-30T08:34:40.272Z,101861.81
2022-11-30T08:36:47.105Z,101857.63
2022-11-30T08:38:53.355Z,101859.56
2022-11-30T08:40:58.694Z,101854.91
2022-11-30T08:43:01.429Z,101849.59
2022-11-30T08:45:04.513Z,101857.44
2022-11-30T08:47:07.644Z,101858.75
2022-11-30T08:49:21.529Z,101852.41
2022-11-30T08:51:25.097Z,101846.25
2022-11-30T08:53:27.888Z,101859.25
2022-11-30T08:55:30.528Z,101859.25
2022-11-30T08:57:33.843Z,101838.47
2022-11-30T08:59:36.581Z,101857.44
2022-11-30T09:01:39.426Z,101861.69
2022-11-30T09:03:43.281Z,101860.13
2022-11-30T09:05:45.923Z,101854.66
2022-11-30T09:07:48.615Z,101845.63
2022-11-30T09:09:51.299Z,101844.78
2022-11-30T09:11:53.944Z,101846.47
2022-11-30T09:13:58.541Z,101849.69
2022-11-30T09:16:01.267Z,101839.72
2022-11-30T09:18:04.068Z,101838.59
2022-11-30T09:20:07.912Z,101847.00
2022-11-30T09:22:10.559Z,101856.53
2022-11-30T09:24:13.191Z,101854.59
2022-11-30T09:26:18.069Z,101847.31
2022-11-30T09:28:20.666Z,101846.22
2022-11-30T09:30:23.276Z,101851.28
2022-11-30T09:32:26.226Z,101848.44
2022-11-30T09:34:28.885Z,101858.69
2022-11-30T09:36:33.115Z,101849.44
2022-11-30T09:38:36.588Z,101845.25
2022-11-30T09:40:41.914Z,101840.59
2022-11-30T09:42:49.543Z,101839.19
2022-11-30T09:45:09.848Z,101829.78
2022-11-30T09:47:36.330Z,101823.47
2022-11-30T09:49:47.901Z,101845.38
2022-11-30T09:51:52.758Z,101841.16
2022-11-30T09:54:09.043Z,101857.91
2022-11-30T09:56:26.763Z,101855.66
2022-11-30T09:58:48.411Z,101851.69
2022-11-30T10:00:51.080Z,101844.69
2022-11-30T10:02:56.720Z,101847.91
2022-11-30T10:04:59.984Z,101855.50
2022-11-30T10:07:27.298Z,101849.75
2022-11-30T10:09:57.556Z,101860.81
2022-11-30T10:12:26.767Z,101864.88
2022-11-30T10:14:48.107Z,101869.63
2022-11-30T10:17:22.766Z,101872.72
2022-11-30T10:20:02.609Z,101866.66
2022-11-30T10:22:37.097Z,101862.63
2022-11-30T10:25:11.737Z,101849.75
2022-11-30T10:27:44.765Z,101852.81
2022-11-30T10:29:47.430Z,101849.31
2022-11-30T10:31:56.755Z,101850.88
2022-11-30T10:34:15.359Z,101845.94
2022-11-30T10:36:29.808Z,101850.03
2022-11-30T10:38:40.258Z,101853.13
2022-11-30T10:40:58.108Z,101848.78
2022-11-30T10:43:26.979Z,101853.53
2022-11-30T10:45:31.137Z,101854.53
2022-11-30T10:47:37.337Z,101858.03
2022-11-30T10:49:45.556Z,101852.25
2022-11-30T10:51:54.305Z,101864.19
2022-11-30T10:53:58.925Z,101857.63
2022-11-30T10:56:12.706Z,101857.31
2022-11-30T10:58:38.654Z,101849.03
2022-11-30T11:00:50.883Z,101850.31
2022-11-30T11:02:53.868Z,101849.03
2022-11-30T11:05:27.039Z,101848.63
2022-11-30T11:07:32.156Z,101850.63
2022-11-30T11:09:49.269Z,101850.63
2022-11-30T11:11:58.071Z,101864.34
2022-11-30T11:14:23.706Z,101869.94
2022-11-30T11:16:26.632Z,101867.16
2022-11-30T11:18:32.259Z,101855.06
2022-11-30T11:20:39.196Z,101854.81
2022-11-30T11:22:44.240Z,101859.88
2022-11-30T11:24:49.147Z,101857.75
2022-11-30T11:26:53.838Z,101855.59
2022-11-30T11:29:01.123Z,101862.47
2022-11-30T11:31:19.964Z,101855.91
2022-11-30T11:33:29.970Z,101863.19
2022-11-30T11:35:41.817Z,101846.94
2022-11-30T11:37:52.055Z,101862.03
2022-11-30T11:40:16.346Z,101855.88
2022-11-30T11:42:22.463Z,101873.13
2022-11-30T11:44:28.305Z,101866.34
2022-11-30T11:46:33.364Z,101877.16
2022-11-30T11:48:40.796Z,101872.22
2022-11-30T11:51:06.623Z,101885.97
2022-11-30T11:53:23.156Z,101889.63
2022-11-30T11:55:26.033Z,101889.78
2022-11-30T11:57:54.901Z,101881.91
2022-11-30T12:00:05.745Z,101890.31
2022-11-30T12:02:08.824Z,101890.31
2022-11-30T12:04:30.341Z,101889.47
2022-11-30T12:06:35.213Z,101885.53
2022-11-30T12:08:56.898Z,101894.16
2022-11-30T12:11:24.171Z,101884.38
2022-11-30T12:13:34.196Z,101880.84
2022-11-30T12:16:07.853Z,101897.41
2022-11-30T12:18:24.182Z,101888.28
2022-11-30T12:20:34.068Z,101878.25
2022-11-30T12:23:04.740Z,101879.03
2022-11-30T12:25:22.292Z,101881.94
2022-11-30T12:27:53.396Z,101888.25
2022-11-30T12:30:22.544Z,101890.03
2022-11-30T12:32:56.183Z,101890.91
2022-11-30T12:35:17.312Z,101888.69
2022-11-30T12:37:22.890Z,101889.69
2022-11-30T12:40:09.678Z,101883.38
2022-11-30T12:42:30.076Z,101882.97
2022-11-30T12:44:47.567Z,101880.16
2022-11-30T12:47:32.106Z,101880.19
2022-11-30T12:50:18.576Z,101884.97
2022-11-30T12:52:39.170Z,101888.94
2022-11-30T12:55:03.063Z,101886.13
2022-11-30T12:57:18.076Z,101887.13
2022-11-30T12:59:47.813Z,101887.88
2022-11-30T13:02:14.733Z,101878.84
2022-11-30T13:04:38.905Z,101877.31
2022-11-30T13:06:53.877Z,101874.91
2022-11-30T13:09:30.887Z,101876.59
2022-11-30T13:11:42.016Z,101871.25
2022-11-30T13:13:59.201Z,101884.34
2022-11-30T13:16:06.313Z,101881.91
2022-11-30T13:18:16.512Z,101881.94
2022-11-30T13:20:45.448Z,101891.25
2022-11-30T13:23:05.765Z,101890.00
2022-11-30T13:26:05.817Z,101883.69
2022-11-30T13:28:34.348Z,101883.69
2022-11-30T13:30:48.610Z,101884.13
2022-11-30T13:32:59.202Z,101875.13
2022-11-30T13:35:29.723Z,101894.06
2022-11-30T13:37:33.379Z,101872.63
2022-11-30T13:39:50.903Z,101887.78
2022-11-30T13:42:02.489Z,101881.47
2022-11-30T13:44:05.580Z,101876.00
2022-11-30T13:46:18.166Z,101883.00
2022-11-30T13:48:38.213Z,101879.38
2022-11-30T13:50:41.364Z,101878.28
2022-11-30T13:52:59.414Z,101878.97
2022-11-30T13:55:34.234Z,101887.66
2022-11-30T13:57:56.643Z,101872.53
2022-11-30T14:00:01.879Z,101877.16
2022-11-30T14:02:33.869Z,101873.50
2022-11-30T14:04:46.177Z,101876.75
2022-11-30T14:06:50.988Z,101868.75
2022-11-30T14:08:53.613Z,101878.81
2022-11-30T14:11:34.316Z,101878.09
2022-11-30T14:13:37.022Z,101874.78
2022-11-30T14:15:39.502Z,101871.66
2022-11-30T14:17:42.239Z,101868.44
2022-11-30T14:19:52.168Z,101870.25
2022-11-30T14:21:55.560Z,101873.19
2022-11-30T14:24:29.497Z,101866.78
2022-11-30T14:26:42.794Z,101869.56
2022-11-30T14:29:09.841Z,101865.78
2022-11-30T14:31:18.661Z,101866.63
2022-11-30T14:33:38.635Z,101873.88
2022-11-30T14:35:43.387Z,101865.94
2022-11-30T14:37:54.442Z,101866.75
2022-11-30T14:40:03.131Z,101867.53
2022-11-30T14:42:06.885Z,101869.75
2022-11-30T14:44:15.710Z,101876.13
2022-11-30T14:46:18.592Z,101874.06
2022-11-30T14:48:22.304Z,101872.75
2022-11-30T14:50:26.951Z,101864.22
2022-11-30T14:52:32.285Z,101872.75
2022-11-30T14:54:46.046Z,101874.69
2022-11-30T14:56:52.881Z,101864.72
2022-11-30T14:59:03.895Z,101876.91
2022-11-30T15:01:21.460Z,101869.38
2022-11-30T15:03:27.889Z,101882.06
2022-11-30T15:05:31.229Z,101874.38
2022-11-30T15:07:37.238Z,101878.75
2022-11-30T15:09:43.948Z,101883.41
2022-11-30T15:11:48.886Z,101875.09
2022-11-30T15:13:54.516Z,101870.16
2022-11-30T15:15:57.215Z,101866.72
2022-11-30T15:18:14.379Z,101869.53
2022-11-30T15:20:40.363Z,101870.50
2022-11-30T15:22:42.976Z,101871.53
2022-11-30T15:24:45.790Z,101875.09
2022-11-30T15:26:54.816Z,101876.00
2022-11-30T15:29:07.659Z,101864.00
2022-11-30T15:31:15.040Z,101861.44
2022-11-30T15:33:20.541Z,101860.94
2022-11-30T15:35:34.348Z,101860.94
2022-11-30T15:37:49.177Z,101851.28
2022-11-30T15:39:55.837Z,101853.06
2022-11-30T15:42:01.548Z,101850.16
2022-11-30T15:44:04.292Z,101840.09
2022-11-30T15:46:07.546Z,101844.88
2022-11-30T15:48:36.433Z,101835.59
2022-11-30T15:50:40.516Z,101841.63
2022-11-30T15:52:45.070Z,101843.84
2022-11-30T15:54:52.948Z,101849.78
2022-11-30T15:56:57.735Z,101844.69
2022-11-30T15:59:25.459Z,101848.78
2022-11-30T16:01:28.871Z,101845.84
2022-11-30T16:03:52.375Z,101837.16
2022-11-30T16:06:00.652Z,101847.03
2022-11-30T16:08:03.931Z,101852.25
2022-11-30T16:10:15.927Z,101843.00
2022-11-30T16:12:29.659Z,101844.63
2022-11-30T16:14:32.285Z,101842.22
2022-11-30T16:16:35.090Z,101842.72
2022-11-30T16:18:37.786Z,101846.88
2022-11-30T16:20:44.240Z,101838.56
2022-11-30T16:22:48.096Z,101848.00
2022-11-30T16:24:50.809Z,101845.44
2022-11-30T16:26:53.524Z,101843.50
2022-11-30T16:28:57.907Z,101843.66
2022-11-30T16:31:01.023Z,101851.16
2022-11-30T16:33:03.884Z,101849.34
2022-11-30T16:35:20.969Z,101852.16
2022-11-30T16:37:23.623Z,101847.53
2022-11-30T16:39:26.809Z,101845.44
2022-11-30T16:41:29.941Z,101849.94
2022-11-30T16:43:33.973Z,101846.16
2022-11-30T16:45:38.574Z,101856.69
2022-11-30T16:47:42.688Z,101848.59
2022-11-30T16:49:45.635Z,101851.09
2022-11-30T16:51:48.617Z,101851.09
2022-11-30T16:53:51.416Z,101846.31
2022-11-30T16:55:54.071Z,101839.56
2022-11-30T16:57:56.771Z,101844.56
2022-11-30T16:59:59.411Z,101836.03
2022-11-30T17:02:02.154Z,101833.41
2022-11-30T17:04:10.755Z,101824.84
2022-11-30T17:06:22.253Z,101822.41
2022-11-30T17:08:25.195Z,101826.97
2022-11-30T17:10:28.142Z,101829.47
2022-11-30T17:12:31.036Z,101825.44
2022-11-30T17:14:33.642Z,101838.16
2022-11-30T17:16:36.433Z,101828.94
2022-11-30T17:18:39.184Z,101823.63
2022-11-30T17:20:42.060Z,101834.53
2022-11-30T17:22:45.524Z,101829.09
2022-11-30T17:24:48.411Z,101822.09
2022-11-30T17:26:51.268Z,101835.53
2022-11-30T17:28:54.005Z,101834.56
2022-11-30T17:30:56.682Z,101831.53
2022-11-30T17:32:59.344Z,101831.72
2022-11-30T17:35:02.054Z,101833.97
2022-11-30T17:37:06.204Z,101838.47
2022-11-30T17:39:09.705Z,101835.16
2022-11-30T17:41:19.604Z,101836.38
2022-11-30T17:43:22.969Z,101835.88
2022-11-30T17:45:25.562Z,101836.66
2022-11-30T17:47:28.190Z,101838.06
2022-11-30T17:49:30.772Z,101844.84
2022-11-30T17:51:33.601Z,101836.53
2022-11-30T17:53:38.598Z,101835.06
2022-11-30T17:55:41.325Z,101838.16
2022-11-30T17:57:43.982Z,101844.66
2022-11-30T17:59:46.531Z,101839.56
2022-11-30T18:01:49.186Z,101837.56
2022-11-30T18:03:53.353Z,101828.22
2022-11-30T18:06:02.873Z,101826.72
2022-11-30T18:08:05.519Z,101847.81
2022-11-30T18:10:09.604Z,101832.44
2022-11-30T18:12:13.369Z,101838.66
2022-11-30T18:14:16.084Z,101841.16
2022-11-30T18:16:22.940Z,101843.81
2022-11-30T18:18:25.577Z,101847.94
2022-11-30T18:20:29.454Z,101847.16
2022-11-30T18:22:33.028Z,101838.19
2022-11-30T18:24:35.650Z,101848.25
2022-11-30T18:26:39.103Z,101850.34
2022-11-30T18:28:42.337Z,101844.84
2022-11-30T18:30:45.106Z,101847.97
2022-11-30T18:32:47.912Z,101856.31
2022-11-30T18:34:50.666Z,101848.38
2022-11-30T18:36:53.425Z,101857.19
2022-11-30T18:38:56.191Z,101850.34
2022-11-30T18:40:59.075Z,101845.72
2022-11-30T18:43:01.705Z,101843.53
2022-11-30T18:45:04.839Z,101846.78
2022-11-30T18:47:07.476Z,101843.41
2022-11-30T18:49:10.241Z,101840.03
2022-11-30T18:51:18.198Z,101858.22
2022-11-30T18:53:20.855Z,101847.69
2022-11-30T18:55:24.734Z,101841.31
2022-11-30T18:57:27.411Z,101838.28
2022-11-30T18:59:29.995Z,101834.13
2022-11-30T19:01:33.506Z,101839.66
2022-11-30T19:03:37.208Z,101831.56
2022-11-30T19:05:40.993Z,101839.00
2022-11-30T19:07:43.641Z,101836.91
2022-11-30T19:09:46.425Z,101829.50
2022-11-30T19:11:49.481Z,101823.94
2022-11-30T19:13:56.941Z,101831.06
2022-11-30T19:16:08.128Z,101834.56
2022-11-30T19:18:11.757Z,101825.72
2022-11-30T19:20:14.684Z,101828.09
2022-11-30T19:22:17.209Z,101832.41
2022-11-30T19:24:19.867Z,101843.19
2022-11-30T19:26:22.469Z,101838.72
2022-11-30T19:28:25.051Z,101846.31
2022-11-30T19:30:27.851Z,101846.69
2022-11-30T19:32:30.451Z,101845.72
2022-11-30T19:34:33.024Z,101850.91
2022-11-30T19:36:35.928Z,101850.75
2022-11-30T19:38:38.687Z,101853.44
2022-11-30T19:40:41.220Z,101849.63
2022-11-30T19:42:43.745Z,101858.47
2022-11-30T19:44:46.750Z,101860.97
2022-11-30T19:46:50.542Z,101856.47
2022-11-30T19:48:57.970Z,101856.34
2022-11-30T19:51:07.996Z,101846.50
2022-11-30T19:53:11.907Z,101856.75
2022-11-30T19:55:14.506Z,101853.00
2022-11-30T19:57:17.056Z,101851.34
2022-11-30T19:59:19.747Z,101853.81
2022-11-30T20:01:24.841Z,101856.03
2022-11-30T20:03:27.649Z,101856.88
2022-11-30T20:05:30.696Z,101851.72
2022-11-30T20:07:34.905Z,101857.03
2022-11-30T20:09:37.551Z,101862.19
2022-11-30T20:11:40.351Z,101858.69
2022-11-30T20:13:44.057Z,101852.66
2022-11-30T20:15:46.670Z,101851.84
2022-11-30T20:17:49.301Z,101850.38
2022-11-30T20:19:51.925Z,101860.78
2022-11-30T20:21:54.587Z,101867.22
2022-11-30T20:23:59.445Z,101865.38
2022-11-30T20:26:02.038Z,101872.53
2022-11-30T20:28:09.631Z,101873.63
2022-11-30T20:30:14.997Z,101872.03
2022-11-30T20:32:18.155Z,101868.19
2022-11-30T20:34:20.889Z,101867.50
2022-11-30T20:36:23.589Z,101871.94
2022-11-30T20:38:26.142Z,101859.19
2022-11-30T20:40:28.688Z,101863.16
2022-11-30T20:42:31.323Z,101869.56
2022-11-30T20:44:33.936Z,101871.38
2022-11-30T20:46:36.989Z,101868.72
2022-11-30T20:48:39.808Z,101871.50
2022-11-30T20:50:43.818Z,101866.56
2022-11-30T20:52:50.713Z,101865.72
2022-11-30T20:54:53.348Z,101863.69
2022-11-30T20:56:57.434Z,101867.19
2022-11-30T20:59:06.115Z,101871.06
2022-11-30T21:01:17.549Z,101871.19
2022-11-30T21:03:20.077Z,101875.91
2022-11-30T21:05:22.635Z,101875.06
2022-11-30T21:07:25.237Z,101874.84
2022-11-30T21:09:27.897Z,101880.59
2022-11-30T21:11:31.215Z,101868.44
2022-11-30T21:13:34.909Z,101867.59
2022-11-30T21:15:37.590Z,101870.97
2022-11-30T21:17:40.237Z,101879.31
2022-11-30T21:19:42.791Z,101881.97
2022-11-30T21:21:45.379Z,101866.13
2022-11-30T21:23:49.384Z,101868.78
2022-11-30T21:25:51.984Z,101874.84
2022-11-30T21:27:54.603Z,101875.91
2022-11-30T21:29:57.348Z,101874.00
2022-11-30T21:31:59.998Z,101876.75
2022-11-30T21:34:03.053Z,101883.16
2022-11-30T21:36:07.867Z,101885.72
2022-11-30T21:38:10.411Z,101879.94
2022-11-30T21:40:13.256Z,101879.56
2022-11-30T21:42:15.841Z,101877.47
2022-11-30T21:44:18.740Z,101867.50
2022-11-30T21:46:21.945Z,101884.41
2022-11-30T21:48:24.713Z,101881.97
2022-11-30T21:50:27.549Z,101878.47
2022-11-30T21:52:30.173Z,101877.38
2022-11-30T21:54:32.680Z,101871.97
2022-11-30T21:56:38.367Z,101878.22
2022-11-30T21:58:42.639Z,101879.09
2022-11-30T22:00:45.206Z,101873.91
2022-11-30T22:02:48.763Z,101870.50
2022-11-30T22:04:51.413Z,101876.66
2022-11-30T22:06:53.991Z,101876.81
2022-11-30T22:09:03.236Z,101877.75
2022-11-30T22:11:11.850Z,101869.94
2022-11-30T22:13:14.434Z,101876.31
2022-11-30T22:15:17.104Z,101880.91
2022-11-30T22:17:19.825Z,101873.91
2022-11-30T22:19:22.491Z,101875.84
2022-11-30T22:21:27.487Z,101878.25
2022-11-30T22:23:30.147Z,101879.94
2022-11-30T22:25:32.689Z,101878.25
2022-11-30T22:27:37.004Z,101888.88
2022-11-30T22:29:39.602Z,101887.44
2022-11-30T22:31:44.943Z,101884.06
2022-11-30T22:33:48.466Z,101897.06
2022-11-30T22:35:51.253Z,101889.09
2022-11-30T22:37:54.923Z,101883.06
2022-11-30T22:39:57.649Z,101880.19
2022-11-30T22:42:00.206Z,101878.25
2022-11-30T22:44:03.049Z,101876.19
2022-11-30T22:46:11.539Z,101886.34
2022-11-30T22:48:14.119Z,101885.50
2022-11-30T22:50:16.753Z,101883.22
2022-11-30T22:52:28.096Z,101878.84
2022-11-30T22:54:39.148Z,101883.31
2022-11-30T22:56:41.998Z,101869.09
2022-11-30T22:58:47.277Z,101874.53
2022-11-30T23:00:49.953Z,101852.81
2022-11-30T23:02:52.559Z,101871.63
2022-11-30T23:04:55.230Z,101864.84
2022-11-30T23:06:58.067Z,101871.16
2022-11-30T23:09:00.916Z,101871.97
2022-11-30T23:11:07.167Z,101864.84
2022-11-30T23:13:09.717Z,101863.06
2022-11-30T23:15:12.196Z,101856.06
2022-11-30T23:17:14.821Z,101850.66
2022-11-30T23:19:18.313Z,101851.63
2022-11-30T23:21:28.325Z,101853.41
2022-11-30T23:23:32.461Z,101867.66
2022-11-30T23:25:34.962Z,101853.41
2022-11-30T23:27:37.569Z,101859.59
2022-11-30T23:29:40.607Z,101864.28
2022-11-30T23:31:44.518Z,101864.38
2022-11-30T23:33:48.142Z,101863.06
2022-11-30T23:35:50.754Z,101854.38
2022-11-30T23:37:53.334Z,101859.47
2022-11-30T23:39:55.888Z,101863.31
2022-11-30T23:41:58.532Z,101858.38
2022-11-30T23:44:01.924Z,101853.91
2022-11-30T23:46:06.311Z,101843.31
2022-11-30T23:48:10.449Z,101854.88
2022-11-30T23:50:13.062Z,101829.44
2022-11-30T23:52:15.559Z,101831.22
2022-11-30T23:54:18.224Z,101834.75
2022-11-30T23:56:22.375Z,101833.66
2022-11-30T23:58:24.874Z,101823.06
